createdAt,value
2022-11-18T00:02:00.757Z,7.00
2022-11-18T00:04:28.602Z,7.00
2022-11-18T00:07:30.565Z,7.00
2022-11-18T00:14:25.253Z,6.90
2022-11-18T00:17:06.194Z,7.00
2022-11-18T00:19:38.197Z,7.00
2022-11-18T00:22:07.481Z,7.00
2022-11-18T00:28:42.163Z,6.90
2022-11-18T00:31:12.527Z,6.90
2022-11-18T00:33:40.750Z,6.90
2022-11-18T00:36:10.979Z,6.90
2022-11-18T00:42:56.595Z,6.90
2022-11-18T00:45:24.215Z,7.00
2022-11-18T00:47:51.648Z,6.80
2022-11-18T00:50:26.618Z,6.80
2022-11-18T00:53:57.114Z,6.90
2022-11-18T00:56:52.407Z,6.80
2022-11-18T00:59:20.951Z,6.90
2022-11-18T01:01:58.741Z,6.80
2022-11-18T01:08:44.584Z,6.90
2022-11-18T01:11:29.996Z,6.90
2022-11-18T01:13:57.193Z,7.00
2022-11-18T01:16:26.960Z,6.90
2022-11-18T01:23:06.040Z,7.00
2022-11-18T01:25:33.556Z,7.10
2022-11-18T01:28:00.774Z,7.10
2022-11-18T01:40:20.128Z,7.00
2022-11-18T01:42:47.249Z,7.00
2022-11-18T01:49:55.980Z,7.00
2022-11-18T01:52:41.722Z,6.90
2022-11-18T01:55:18.854Z,6.90
2022-11-18T01:57:50.250Z,6.80
2022-11-18T02:04:33.377Z,6.90
2022-11-18T02:07:00.551Z,6.90
2022-11-18T02:09:27.916Z,6.90
2022-11-18T02:11:55.378Z,6.80
2022-11-18T02:22:54.885Z,6.90
2022-11-18T02:25:53.532Z,6.90
2022-11-18T02:32:59.386Z,6.90
2022-11-18T02:36:00.212Z,6.90
2022-11-18T06:00:43.988Z,6.50
2022-11-18T06:03:24.922Z,6.40
2022-11-18T06:06:14.998Z,6.40
2022-11-18T06:09:10.994Z,6.50
2022-11-18T06:16:06.531Z,6.60
2022-11-18T06:18:45.513Z,6.60
2022-11-18T16:49:57.344Z,5.80
2022-11-18T16:55:07.273Z,5.60
2022-11-18T16:57:37.781Z,5.70
2022-11-18T17:00:06.553Z,5.70
2022-11-18T17:02:33.849Z,5.70
2022-11-18T17:05:01.143Z,5.70
2022-11-18T17:07:29.880Z,5.70
2022-11-18T17:10:21.919Z,5.90
2022-11-18T17:12:49.427Z,5.70
2022-11-18T17:15:37.260Z,5.70
2022-11-18T17:18:07.906Z,5.70
2022-11-18T17:20:41.550Z,5.80
2022-11-18T17:23:29.644Z,5.80
2022-11-18T17:25:57.302Z,5.70
2022-11-18T17:28:26.348Z,5.70
2022-11-18T17:30:54.268Z,5.70
2022-11-18T17:33:40.131Z,5.70
2022-11-18T19:21:34.917Z,4.90
2022-11-18T19:24:02.725Z,4.80
2022-11-18T19:26:29.650Z,4.80
2022-11-18T19:28:56.993Z,4.80
2022-11-18T19:31:24.569Z,4.80
2022-11-18T19:33:51.416Z,4.80
2022-11-18T19:36:19.006Z,4.90
2022-11-18T19:38:45.726Z,4.70
2022-11-18T19:41:13.422Z,4.70
2022-11-18T19:43:40.322Z,4.70
2022-11-18T19:46:07.357Z,4.70
2022-11-18T19:48:34.950Z,4.70
2022-11-18T19:51:19.939Z,4.70
2022-11-18T19:53:46.614Z,4.70
2022-11-18T19:56:16.527Z,4.60
2022-11-18T19:58:45.430Z,4.50
2022-11-18T20:01:22.791Z,4.60
2022-11-18T20:03:54.990Z,4.30
2022-11-18T20:06:23.389Z,4.40
2022-11-18T20:08:50.624Z,4.30
2022-11-18T20:11:19.446Z,4.40
2022-11-18T20:13:47.111Z,4.40
2022-11-18T20:16:24.678Z,4.40
2022-11-18T20:19:00.065Z,4.30
2022-11-18T20:21:29.080Z,4.40
2022-11-18T20:24:01.379Z,4.50
2022-11-18T20:26:31.355Z,4.40
2022-11-18T20:28:58.190Z,4.40
2022-11-18T20:31:25.924Z,4.50
2022-11-18T20:33:53.940Z,4.60
2022-11-18T20:36:20.643Z,4.60
2022-11-18T20:38:52.803Z,4.60
2022-11-18T20:41:20.304Z,4.70
2022-11-18T20:43:48.114Z,4.70
2022-11-18T20:46:20.453Z,4.70
2022-11-18T20:48:48.520Z,4.70
2022-11-18T20:51:20.511Z,4.80
2022-11-18T20:53:47.385Z,4.80
2022-11-18T20:56:17.101Z,4.70
2022-11-18T20:58:44.621Z,4.80
2022-11-18T21:01:12.533Z,4.80
2022-11-18T21:03:40.061Z,4.80
2022-11-18T21:06:13.694Z,5.00
2022-11-18T21:08:41.938Z,4.80
2022-11-18T21:11:11.896Z,5.00
2022-11-18T21:13:58.636Z,5.00
2022-11-18T21:16:26.824Z,4.90
2022-11-18T21:18:54.198Z,5.00
2022-11-18T21:21:39.421Z,4.90
2022-11-18T21:24:06.505Z,5.00
2022-11-18T21:26:34.493Z,5.00
2022-11-18T21:29:03.590Z,5.10
2022-11-18T21:31:31.270Z,5.10
2022-11-18T21:33:58.309Z,5.20
2022-11-18T21:36:26.931Z,5.10
2022-11-18T21:38:53.702Z,5.10
2022-11-18T21:41:20.699Z,5.00
2022-11-18T21:46:35.704Z,5.00
2022-11-18T21:49:03.754Z,5.00
2022-11-18T21:51:33.120Z,5.10
2022-11-18T21:54:00.971Z,5.00
2022-11-18T21:56:30.872Z,5.00
2022-11-18T21:58:59.965Z,5.00
2022-11-18T22:01:29.424Z,5.00
2022-11-18T22:03:58.804Z,5.00
2022-11-18T22:06:29.562Z,4.90
2022-11-18T22:08:56.534Z,5.00
2022-11-18T22:11:24.105Z,5.00
2022-11-18T22:13:52.085Z,5.00
2022-11-18T22:16:20.910Z,5.00
2022-11-18T22:18:54.684Z,4.90
2022-11-18T22:21:26.050Z,4.90
2022-11-18T22:23:52.885Z,4.90
2022-11-18T22:26:21.214Z,4.90
2022-11-18T22:28:52.050Z,4.80
2022-11-18T22:31:20.506Z,4.90
2022-11-18T22:33:47.933Z,4.80
2022-11-18T22:36:17.128Z,4.80
2022-11-18T22:38:44.904Z,4.80
2022-11-18T22:41:38.328Z,4.80
2022-11-18T22:44:08.421Z,4.80
2022-11-18T22:46:36.399Z,4.80
2022-11-18T22:49:03.669Z,4.70
2022-11-18T22:51:30.432Z,4.70
2022-11-18T22:54:22.985Z,4.60
2022-11-18T22:56:43.998Z,4.60
2022-11-18T22:59:12.024Z,4.60
2022-11-18T23:01:39.081Z,4.60
2022-11-18T23:04:06.448Z,4.60
2022-11-18T23:06:33.315Z,4.60
2022-11-18T23:09:00.094Z,4.50
2022-11-18T23:11:45.522Z,4.60
2022-11-18T23:14:12.335Z,4.50
2022-11-18T23:16:40.929Z,4.50
2022-11-18T23:19:12.980Z,4.40
2022-11-18T23:21:39.957Z,4.30
2022-11-18T23:24:07.732Z,4.30
2022-11-18T23:26:34.440Z,4.30
2022-11-18T23:29:01.207Z,4.30
2022-11-18T23:31:28.430Z,4.30
2022-11-18T23:33:56.257Z,4.30
2022-11-18T23:36:24.348Z,4.30
2022-11-18T23:38:52.665Z,4.30
2022-11-18T23:41:20.230Z,4.30
2022-11-18T23:43:48.437Z,4.30
2022-11-18T23:46:17.271Z,4.30
2022-11-18T23:48:44.805Z,4.20
2022-11-18T23:51:20.425Z,4.20
2022-11-18T23:53:51.149Z,4.20
2022-11-18T23:56:19.116Z,4.10
2022-11-18T23:58:48.305Z,4.10
